createdAt,value
2023-03-06T00:02:33.719Z,99903.63
2023-03-06T00:06:35.338Z,99912.91
2023-03-06T00:10:37.476Z,99907.69
2023-03-06T00:14:39.121Z,99897.53
2023-03-06T00:18:41.009Z,99895.06
2023-03-06T00:22:43.125Z,99890.00
2023-03-06T00:26:44.821Z,99879.84
2023-03-06T00:30:47.449Z,99882.38
2023-03-06T00:34:50.164Z,99884.03
2023-03-06T00:38:51.945Z,99868.66
2023-03-06T00:42:53.700Z,99876.84
2023-03-06T00:46:55.418Z,99873.22
2023-03-06T00:50:57.016Z,99865.59
2023-03-06T00:54:58.704Z,99862.19
2023-03-06T00:59:00.412Z,99864.81
2023-03-06T01:03:02.020Z,99855.44
2023-03-06T01:07:03.809Z,99855.53
2023-03-06T01:11:05.932Z,99849.59
2023-03-06T01:15:08.228Z,99845.47
2023-03-06T01:19:09.788Z,99838.75
2023-03-06T01:23:11.493Z,99841.97
2023-03-06T01:27:13.117Z,99835.13
2023-03-06T01:31:14.899Z,99821.56
2023-03-06T01:35:16.690Z,99815.72
2023-03-06T01:39:18.259Z,99802.13
2023-03-06T01:43:26.534Z,99798.38
2023-03-06T01:47:28.523Z,99796.59
2023-03-06T01:51:34.175Z,99793.97
2023-03-06T01:55:38.551Z,99789.75
2023-03-06T01:59:42.663Z,99783.94
2023-03-06T02:03:46.102Z,99782.28
2023-03-06T02:07:48.110Z,99776.28
2023-03-06T02:11:49.778Z,99777.88
2023-03-06T02:15:51.561Z,99772.84
2023-03-06T02:20:12.552Z,99768.50
2023-03-06T02:24:29.915Z,99770.16
2023-03-06T02:28:31.623Z,99764.16
2023-03-06T02:32:34.044Z,99758.22
2023-03-06T02:36:40.800Z,99755.81
2023-03-06T02:40:46.766Z,99744.78
2023-03-06T02:44:50.783Z,99747.31
2023-03-06T02:48:52.448Z,99737.16
2023-03-06T02:52:56.622Z,99729.56
2023-03-06T02:56:58.452Z,99732.03
2023-03-06T03:01:00.866Z,99725.16
2023-03-06T03:05:04.007Z,99726.75
2023-03-06T03:09:07.315Z,99720.81
2023-03-06T03:13:09.945Z,99719.00
2023-03-06T03:17:12.702Z,99718.06
2023-03-06T03:21:14.840Z,99721.44
2023-03-06T03:25:17.210Z,99718.06
2023-03-06T03:29:20.278Z,99716.25
2023-03-06T03:33:22.790Z,99708.59
2023-03-06T03:37:24.416Z,99709.44
2023-03-06T03:41:26.823Z,99711.03
2023-03-06T03:45:28.559Z,99707.63
2023-03-06T03:49:30.298Z,99700.84
2023-03-06T03:53:34.626Z,99693.94
2023-03-06T03:57:39.138Z,99698.22
2023-03-06T04:01:41.813Z,99692.28
2023-03-06T04:05:43.582Z,99688.78
2023-03-06T04:09:48.188Z,99681.13
2023-03-06T04:13:50.512Z,99676.91
2023-03-06T04:17:53.201Z,99675.09
2023-03-06T04:21:58.879Z,99670.75
2023-03-06T04:26:00.910Z,99670.69
2023-03-06T04:30:04.598Z,99673.28
2023-03-06T04:34:06.878Z,99672.34
2023-03-06T04:38:09.191Z,99667.09
2023-03-06T04:42:11.063Z,99667.81
2023-03-06T04:46:12.868Z,99663.66
2023-03-06T04:50:15.483Z,99662.00
2023-03-06T04:54:18.983Z,99655.19
2023-03-06T04:58:20.904Z,99654.22
2023-03-06T05:02:24.542Z,99644.81
2023-03-06T05:06:26.467Z,99647.34
2023-03-06T05:10:29.148Z,99642.38
2023-03-06T05:14:31.374Z,99651.66
2023-03-06T05:18:34.068Z,99645.63
2023-03-06T05:22:35.854Z,99637.78
2023-03-06T05:26:37.531Z,99643.78
2023-03-06T05:30:42.076Z,99636.03
2023-03-06T05:34:43.833Z,99639.69
2023-03-06T05:38:45.488Z,99630.28
2023-03-06T05:42:47.146Z,99637.88
2023-03-06T05:46:50.213Z,99631.88
2023-03-06T05:50:59.032Z,99636.16
2023-03-06T05:55:00.577Z,99639.47
2023-03-06T05:59:02.090Z,99636.16
2023-03-06T06:03:03.652Z,99638.03
2023-03-06T06:07:06.170Z,99637.03
2023-03-06T06:11:09.851Z,99630.19
2023-03-06T06:15:11.556Z,99634.41
2023-03-06T06:19:18.507Z,99635.22
2023-03-06T06:23:20.087Z,99630.75
2023-03-06T06:27:21.601Z,99636.72
2023-03-06T06:31:23.312Z,99637.59
2023-03-06T06:35:25.406Z,99641.16
2023-03-06T06:39:27.062Z,99642.00
2023-03-06T06:43:28.645Z,99645.56
2023-03-06T06:47:30.407Z,99653.25
2023-03-06T06:51:33.316Z,99647.53
2023-03-06T06:55:34.858Z,99643.38
2023-03-06T06:59:36.359Z,99647.78
2023-03-06T07:03:38.468Z,99652.06
2023-03-06T07:07:40.044Z,99648.72
2023-03-06T07:11:41.983Z,99653.81
2023-03-06T07:15:43.523Z,99658.00
2023-03-06T07:19:45.465Z,99659.03
2023-03-06T07:23:47.821Z,99669.16
2023-03-06T07:27:54.528Z,99664.16
2023-03-06T07:31:56.192Z,99665.31
2023-03-06T07:35:57.795Z,99661.34
2023-03-06T07:39:59.410Z,99654.88
2023-03-06T07:44:01.433Z,99646.72
2023-03-06T07:48:05.522Z,99650.25
2023-03-06T07:52:07.232Z,99650.59
2023-03-06T07:56:09.495Z,99661.88
2023-03-06T08:00:14.690Z,99661.28
2023-03-06T08:04:16.808Z,99653.63
2023-03-06T08:08:18.524Z,99656.22
2023-03-06T08:12:20.094Z,99649.84
2023-03-06T08:16:23.914Z,99662.22
2023-03-06T08:20:25.853Z,99672.81
2023-03-06T08:24:27.840Z,99666.97
2023-03-06T08:28:29.365Z,99681.63
2023-03-06T08:32:30.994Z,99684.78
2023-03-06T08:36:33.019Z,99680.31
2023-03-06T08:40:34.610Z,99680.44
2023-03-06T08:44:36.516Z,99684.94
2023-03-06T08:48:39.068Z,99687.69
2023-03-06T08:52:40.681Z,99690.84
2023-03-06T08:56:42.441Z,99691.94
2023-03-06T09:00:44.165Z,99695.41
2023-03-06T09:04:45.764Z,99691.22
2023-03-06T09:08:47.499Z,99695.56
2023-03-06T09:12:52.446Z,99698.97
2023-03-06T09:16:55.445Z,99694.00
2023-03-06T09:20:57.029Z,99683.78
2023-03-06T09:24:58.564Z,99694.88
2023-03-06T09:29:00.258Z,99688.06
2023-03-06T09:33:01.787Z,99691.59
2023-03-06T09:37:03.445Z,99699.56
2023-03-06T09:41:14.291Z,99698.28
2023-03-06T09:45:15.872Z,99695.25
2023-03-06T09:49:30.219Z,99689.72
2023-03-06T09:53:45.074Z,99704.34
2023-03-06T09:58:01.261Z,99691.22
2023-03-06T10:02:17.970Z,99694.81
2023-03-06T10:06:19.521Z,99687.72
2023-03-06T10:10:53.074Z,99691.66
2023-03-06T10:15:01.244Z,99681.03
2023-03-06T10:19:10.249Z,99685.97
2023-03-06T10:23:25.437Z,99676.28
2023-03-06T10:27:50.673Z,99676.00
2023-03-06T10:32:04.352Z,99664.56
2023-03-06T10:36:06.153Z,99681.69
2023-03-06T10:40:19.509Z,99682.09
2023-03-06T10:44:22.364Z,99675.63
2023-03-06T10:48:26.534Z,99678.84
2023-03-06T10:52:33.810Z,99677.41
2023-03-06T10:56:46.339Z,99688.72
2023-03-06T11:01:04.910Z,99686.75
2023-03-06T11:05:18.638Z,99681.25
2023-03-06T11:09:25.186Z,99676.38
2023-03-06T11:13:29.361Z,99677.75
2023-03-06T11:17:32.117Z,99669.06
2023-03-06T11:21:36.547Z,99669.81
2023-03-06T11:25:42.626Z,99666.09
2023-03-06T11:29:48.582Z,99663.31
2023-03-06T11:34:08.794Z,99671.69
2023-03-06T11:38:27.165Z,99663.53
2023-03-06T11:42:37.842Z,99666.66
2023-03-06T11:46:53.041Z,99666.81
2023-03-06T11:51:06.490Z,99653.66
2023-03-06T11:55:15.301Z,99655.63
2023-03-06T11:59:25.990Z,99650.81
2023-03-06T12:03:59.700Z,99659.84
2023-03-06T12:08:25.566Z,99656.31
2023-03-06T12:12:58.397Z,99647.72
2023-03-06T12:17:23.448Z,99642.88
2023-03-06T12:21:40.110Z,99632.81
2023-03-06T12:26:09.062Z,99630.44
2023-03-06T12:30:21.947Z,99620.41
2023-03-06T12:34:32.383Z,99618.47
2023-03-06T12:38:52.729Z,99619.69
2023-03-06T12:43:19.814Z,99625.22
2023-03-06T12:47:25.394Z,99601.34
2023-03-06T12:51:27.580Z,99597.72
2023-03-06T12:55:40.064Z,99600.00
2023-03-06T12:59:47.947Z,99595.44
2023-03-06T13:04:07.629Z,99593.63
2023-03-06T13:08:52.921Z,99609.03
2023-03-06T13:13:01.594Z,99594.50
2023-03-06T13:17:38.482Z,99605.94
2023-03-06T13:21:53.694Z,99601.00
2023-03-06T13:26:04.244Z,99604.09
2023-03-06T13:30:28.340Z,99591.53
2023-03-06T13:34:36.166Z,99592.78
2023-03-06T13:38:58.213Z,99592.59
2023-03-06T13:43:08.727Z,99594.22
2023-03-06T13:47:29.721Z,99596.78
2023-03-06T13:51:46.228Z,99594.88
2023-03-06T13:55:53.969Z,99597.13
2023-03-06T14:00:17.173Z,99598.25
2023-03-06T14:04:36.682Z,99606.63
2023-03-06T14:08:40.859Z,99610.50
2023-03-06T14:13:02.340Z,99614.09
2023-03-06T14:17:05.305Z,99611.34
2023-03-06T14:21:13.471Z,99604.09
2023-03-06T14:25:20.448Z,99604.91
2023-03-06T14:29:24.074Z,99608.91
2023-03-06T14:33:43.194Z,99598.25
2023-03-06T14:37:53.069Z,99589.63
2023-03-06T14:42:08.960Z,99588.38
2023-03-06T14:46:19.383Z,99594.25
2023-03-06T14:50:29.224Z,99588.06
2023-03-06T14:54:38.681Z,99570.88
2023-03-06T14:58:59.274Z,99579.28
2023-03-06T15:03:01.733Z,99569.06
2023-03-06T15:07:09.278Z,99573.44
2023-03-06T15:11:10.905Z,99577.22
2023-03-06T15:15:12.705Z,99573.66
2023-03-06T15:19:19.328Z,99569.94
2023-03-06T15:23:41.730Z,99577.44
2023-03-06T15:27:53.708Z,99575.28
2023-03-06T15:32:29.428Z,99573.47
2023-03-06T15:36:33.268Z,99562.97
2023-03-06T15:40:35.470Z,99567.38
2023-03-06T15:44:37.074Z,99576.09
2023-03-06T15:48:38.640Z,99564.06
2023-03-06T15:52:40.233Z,99569.50
2023-03-06T15:56:45.652Z,99572.28
2023-03-06T16:00:47.405Z,99563.44
2023-03-06T16:04:49.814Z,99571.78
2023-03-06T16:08:51.914Z,99578.31
2023-03-06T16:13:15.869Z,99583.19
2023-03-06T16:17:17.568Z,99565.28
2023-03-06T16:21:19.165Z,99574.59
2023-03-06T16:25:22.477Z,99579.56
2023-03-06T16:29:26.128Z,99582.81
2023-03-06T16:33:27.680Z,99587.69
2023-03-06T16:37:29.226Z,99577.31
2023-03-06T16:41:33.694Z,99580.19
2023-03-06T16:45:37.336Z,99593.56
2023-03-06T16:49:38.959Z,99597.50
2023-03-06T16:53:40.591Z,99603.06
2023-03-06T16:57:42.202Z,99605.06
2023-03-06T17:01:43.827Z,99603.97
2023-03-06T17:05:45.438Z,99602.84
2023-03-06T17:09:46.965Z,99606.19
2023-03-06T17:13:48.612Z,99616.91
2023-03-06T17:17:51.575Z,99618.66
2023-03-06T17:21:53.180Z,99618.59
2023-03-06T17:26:08.586Z,99621.84
2023-03-06T17:30:11.256Z,99621.41
2023-03-06T17:34:12.851Z,99639.91
2023-03-06T17:38:14.394Z,99637.44
2023-03-06T17:42:18.947Z,99639.75
2023-03-06T17:46:20.546Z,99635.13
2023-03-06T17:50:22.191Z,99636.44
2023-03-06T17:54:26.185Z,99640.81
2023-03-06T17:58:27.822Z,99637.22
2023-03-06T18:02:29.340Z,99638.97
2023-03-06T18:06:33.332Z,99637.22
2023-03-06T18:10:34.903Z,99631.50
2023-03-06T18:14:37.073Z,99631.50
2023-03-06T18:18:38.870Z,99629.16
2023-03-06T18:22:40.548Z,99637.78
2023-03-06T18:26:42.506Z,99642.75
2023-03-06T18:30:44.153Z,99640.78
2023-03-06T18:34:46.140Z,99641.63
2023-03-06T18:38:48.027Z,99640.69
2023-03-06T18:42:49.873Z,99634.66
2023-03-06T18:46:51.431Z,99633.88
2023-03-06T18:50:52.979Z,99636.22
2023-03-06T18:54:54.496Z,99649.72
2023-03-06T18:58:56.703Z,99643.78
2023-03-06T19:02:58.250Z,99645.63
2023-03-06T19:06:59.823Z,99645.91
2023-03-06T19:11:03.670Z,99632.63
2023-03-06T19:15:05.621Z,99630.38
2023-03-06T19:19:07.410Z,99626.06
2023-03-06T19:23:09.089Z,99623.75
2023-03-06T19:27:11.418Z,99626.44
2023-03-06T19:31:21.082Z,99619.66
2023-03-06T19:35:24.277Z,99623.81
2023-03-06T19:39:25.872Z,99622.91
2023-03-06T19:43:28.336Z,99620.41
2023-03-06T19:47:30.061Z,99625.44
2023-03-06T19:51:31.803Z,99613.38
2023-03-06T19:55:34.247Z,99610.13
2023-03-06T19:59:35.848Z,99606.03
2023-03-06T20:03:38.295Z,99596.06
2023-03-06T20:07:39.934Z,99592.56
2023-03-06T20:11:41.637Z,99600.09
2023-03-06T20:15:43.422Z,99593.34
2023-03-06T20:19:45.058Z,99596.91
2023-03-06T20:23:46.819Z,99595.16
2023-03-06T20:27:48.377Z,99587.50
2023-03-06T20:31:53.669Z,99580.66
2023-03-06T20:35:55.306Z,99584.16
2023-03-06T20:39:57.059Z,99584.00
2023-03-06T20:44:00.930Z,99582.22
2023-03-06T20:48:02.564Z,99576.41
2023-03-06T20:52:04.368Z,99572.16
2023-03-06T20:56:06.537Z,99578.09
2023-03-06T21:00:08.831Z,99569.66
2023-03-06T21:04:13.888Z,99574.84
2023-03-06T21:08:16.104Z,99570.72
2023-03-06T21:12:18.147Z,99573.34
2023-03-06T21:16:22.156Z,99559.63
2023-03-06T21:20:23.793Z,99566.47
2023-03-06T21:24:25.517Z,99564.84
2023-03-06T21:28:27.294Z,99551.16
2023-03-06T21:32:29.254Z,99546.09
2023-03-06T21:36:31.083Z,99536.78
2023-03-06T21:40:33.087Z,99541.22
2023-03-06T21:44:34.725Z,99539.47
2023-03-06T21:48:36.532Z,99533.53
2023-03-06T21:52:38.136Z,99533.47
2023-03-06T21:56:39.661Z,99531.84
2023-03-06T22:00:41.240Z,99530.94
2023-03-06T22:04:44.123Z,99527.47
2023-03-06T22:08:46.627Z,99522.38
2023-03-06T22:12:48.272Z,99513.03
2023-03-06T22:16:50.878Z,99521.56
2023-03-06T22:20:52.464Z,99518.13
2023-03-06T22:24:54.247Z,99519.03
2023-03-06T22:28:56.209Z,99512.34
2023-03-06T22:32:57.803Z,99516.56
2023-03-06T22:37:00.325Z,99511.41
2023-03-06T22:41:01.971Z,99505.47
2023-03-06T22:45:03.852Z,99508.75
2023-03-06T22:49:05.505Z,99495.00
2023-03-06T22:53:07.049Z,99499.09
2023-03-06T22:57:08.632Z,99499.09
2023-03-06T23:01:25.245Z,99488.06
2023-03-06T23:05:29.352Z,99487.25
2023-03-06T23:09:31.122Z,99472.00
2023-03-06T23:13:51.333Z,99467.66
2023-03-06T23:18:11.384Z,99471.91
2023-03-06T23:22:31.952Z,99479.41
2023-03-06T23:26:52.056Z,99470.13
2023-03-06T23:30:53.907Z,99475.25
2023-03-06T23:34:55.443Z,99470.25
2023-03-06T23:38:57.322Z,99474.56
2023-03-06T23:42:58.964Z,99468.59
2023-03-06T23:47:01.004Z,99459.19
2023-03-06T23:51:11.910Z,99457.63
2023-03-06T23:55:13.985Z,99467.03
2023-03-06T23:59:15.557Z,99458.63
